KCMH Airport Diagram

We have created a template for each of the higher traffic airports in the vZID airspace. They include KCMH, KCRW, KCVG, KDAY, KIND, KLEX and KSDF. You wil find usefull information including the airport diagram, weather, and specific airport procedures.

KCMH Weather

[Source: ADDS]
METAR
KCMH 300651Z 04005KT 10SM SCT070 BKN250 17/14 A2995 RMK AO2 SLP136 T01670139 =
TAF
KCMH 300535Z 3006/3106 VRB04KT P6SM VCSH BKN100 FM300800 22005KT P6SM BKN110 FM301200 26006KT P6SM FEW110 FM301600 26014G22KT P6SM FEW060 FM310000 27007KT P6SM FEW080 =
JSN Epic template designed by JoomlaShine.com